sensor_id;sensor_type;location;lat;lon;timestamp;P1;durP1;ratioP1;P2;durP2;ratioP2
75932;SDS011;64803;52.356;5.310;2023-04-01T00:00:54;23.25;;;6.25;;
75932;SDS011;64803;52.356;5.310;2023-04-01T00:03:21;24.83;;;6.15;;
75932;SDS011;64803;52.356;5.310;2023-04-01T00:05:48;23.63;;;6.20;;
75932;SDS011;64803;52.356;5.310;2023-04-01T00:08:15;23.30;;;6.43;;
75932;SDS011;64803;52.356;5.310;2023-04-01T00:10:41;35.00;;;6.68;;
75932;SDS011;64803;52.356;5.310;2023-04-01T00:13:07;25.70;;;7.47;;
75932;SDS011;64803;52.356;5.310;2023-04-01T00:15:33;35.75;;;8.65;;
75932;SDS011;64803;52.356;5.310;2023-04-01T00:18:00;25.27;;;6.93;;
75932;SDS011;64803;52.356;5.310;2023-04-01T00:20:26;25.20;;;6.82;;
75932;SDS011;64803;52.356;5.310;2023-04-01T00:22:52;28.20;;;8.10;;
75932;SDS011;64803;52.356;5.310;2023-04-01T00:25:18;33.25;;;7.88;;
75932;SDS011;64803;52.356;5.310;2023-04-01T00:27:45;28.80;;;6.82;;
75932;SDS011;64803;52.356;5.310;2023-04-01T00:30:11;28.17;;;7.78;;
75932;SDS011;64803;52.356;5.310;2023-04-01T00:32:37;25.38;;;6.57;;
75932;SDS011;64803;52.356;5.310;2023-04-01T00:35:04;22.42;;;7.18;;
75932;SDS011;64803;52.356;5.310;2023-04-01T00:37:30;25.45;;;7.18;;
75932;SDS011;64803;52.356;5.310;2023-04-01T00:39:56;29.15;;;7.72;;
75932;SDS011;64803;52.356;5.310;2023-04-01T00:42:23;30.55;;;8.63;;
75932;SDS011;64803;52.356;5.310;2023-04-01T00:44:53;25.02;;;7.80;;
75932;SDS011;64803;52.356;5.310;2023-04-01T00:47:20;30.55;;;9.55;;
75932;SDS011;64803;52.356;5.310;2023-04-01T00:49:50;23.15;;;7.30;;
75932;SDS011;64803;52.356;5.310;2023-04-01T00:52:19;40.15;;;11.45;;
75932;SDS011;64803;52.356;5.310;2023-04-01T00:54:49;36.92;;;11.23;;
75932;SDS011;64803;52.356;5.310;2023-04-01T00:57:20;38.00;;;10.15;;
75932;SDS011;64803;52.356;5.310;2023-04-01T00:59:49;30.95;;;10.25;;
75932;SDS011;64803;52.356;5.310;2023-04-01T01:02:19;32.15;;;9.70;;
75932;SDS011;64803;52.356;5.310;2023-04-01T01:04:46;33.13;;;9.40;;
75932;SDS011;64803;52.356;5.310;2023-04-01T01:12:29;39.20;;;11.80;;
75932;SDS011;64803;52.356;5.310;2023-04-01T01:18:00;42.00;;;11.77;;
75932;SDS011;64803;52.356;5.310;2023-04-01T01:29:07;37.50;;;9.48;;
75932;SDS011;64803;52.356;5.310;2023-04-01T01:37:20;23.25;;;6.68;;
75932;SDS011;64803;52.356;5.310;2023-04-01T01:39:51;30.25;;;6.63;;
75932;SDS011;64803;52.356;5.310;2023-04-01T01:42:22;18.75;;;5.32;;
75932;SDS011;64803;52.356;5.310;2023-04-01T01:44:50;17.85;;;5.50;;
75932;SDS011;64803;52.356;5.310;2023-04-01T01:47:19;25.50;;;6.43;;
75932;SDS011;64803;52.356;5.310;2023-04-01T01:49:48;22.63;;;5.18;;
75932;SDS011;64803;52.356;5.310;2023-04-01T01:52:16;15.40;;;4.80;;
75932;SDS011;64803;52.356;5.310;2023-04-01T01:54:49;14.90;;;3.78;;
75932;SDS011;64803;52.356;5.310;2023-04-01T01:57:16;15.80;;;5.00;;
75932;SDS011;64803;52.356;5.310;2023-04-01T01:59:48;17.27;;;4.47;;
75932;SDS011;64803;52.356;5.310;2023-04-01T02:02:23;13.75;;;4.03;;
75932;SDS011;64803;52.356;5.310;2023-04-01T02:04:51;16.92;;;4.07;;
75932;SDS011;64803;52.356;5.310;2023-04-01T02:07:19;16.00;;;4.05;;
75932;SDS011;64803;52.356;5.310;2023-04-01T02:09:50;16.85;;;4.05;;
75932;SDS011;64803;52.356;5.310;2023-04-01T02:12:17;12.35;;;4.45;;
75932;SDS011;64803;52.356;5.310;2023-04-01T02:14:52;12.55;;;4.40;;
75932;SDS011;64803;52.356;5.310;2023-04-01T02:17:26;14.70;;;4.22;;
75932;SDS011;64803;52.356;5.310;2023-04-01T02:22:48;13.82;;;4.57;;
75932;SDS011;64803;52.356;5.310;2023-04-01T02:25:16;14.43;;;4.25;;
75932;SDS011;64803;52.356;5.310;2023-04-01T02:27:46;16.70;;;4.10;;
75932;SDS011;64803;52.356;5.310;2023-04-01T02:30:13;15.98;;;5.15;;
75932;SDS011;64803;52.356;5.310;2023-04-01T02:32:41;13.93;;;4.15;;
75932;SDS011;64803;52.356;5.310;2023-04-01T02:35:08;19.17;;;5.03;;
75932;SDS011;64803;52.356;5.310;2023-04-01T02:37:37;15.52;;;5.03;;
75932;SDS011;64803;52.356;5.310;2023-04-01T02:42:33;19.05;;;5.65;;
75932;SDS011;64803;52.356;5.310;2023-04-01T02:44:59;14.77;;;4.75;;
75932;SDS011;64803;52.356;5.310;2023-04-01T02:47:25;18.42;;;5.65;;
75932;SDS011;64803;52.356;5.310;2023-04-01T02:49:52;16.27;;;5.07;;
75932;SDS011;64803;52.356;5.310;2023-04-01T02:52:27;16.35;;;4.70;;
75932;SDS011;64803;52.356;5.310;2023-04-01T02:54:55;17.30;;;5.35;;
75932;SDS011;64803;52.356;5.310;2023-04-01T02:57:21;18.27;;;4.80;;
75932;SDS011;64803;52.356;5.310;2023-04-01T02:59:48;15.00;;;4.63;;
75932;SDS011;64803;52.356;5.310;2023-04-01T03:02:14;19.63;;;5.60;;
75932;SDS011;64803;52.356;5.310;2023-04-01T03:04:40;19.55;;;5.28;;
75932;SDS011;64803;52.356;5.310;2023-04-01T03:07:07;17.25;;;4.93;;
75932;SDS011;64803;52.356;5.310;2023-04-01T03:09:34;17.90;;;6.25;;
75932;SDS011;64803;52.356;5.310;2023-04-01T03:12:00;21.85;;;6.22;;
75932;SDS011;64803;52.356;5.310;2023-04-01T03:14:26;22.08;;;5.90;;
75932;SDS011;64803;52.356;5.310;2023-04-01T03:16:52;19.00;;;5.72;;
75932;SDS011;64803;52.356;5.310;2023-04-01T03:19:19;24.48;;;7.40;;
75932;SDS011;64803;52.356;5.310;2023-04-01T03:21:45;23.83;;;6.82;;
75932;SDS011;64803;52.356;5.310;2023-04-01T03:24:11;23.63;;;6.57;;
75932;SDS011;64803;52.356;5.310;2023-04-01T03:26:37;26.88;;;7.57;;
75932;SDS011;64803;52.356;5.310;2023-04-01T03:29:03;26.15;;;6.72;;
75932;SDS011;64803;52.356;5.310;2023-04-01T03:31:29;25.75;;;6.97;;
75932;SDS011;64803;52.356;5.310;2023-04-01T03:33:57;23.88;;;6.57;;
75932;SDS011;64803;52.356;5.310;2023-04-01T03:36:23;26.33;;;6.90;;
75932;SDS011;64803;52.356;5.310;2023-04-01T03:38:49;21.25;;;6.10;;
75932;SDS011;64803;52.356;5.310;2023-04-01T03:41:21;21.48;;;6.13;;
75932;SDS011;64803;52.356;5.310;2023-04-01T03:43:47;23.33;;;6.25;;
75932;SDS011;64803;52.356;5.310;2023-04-01T03:46:17;20.17;;;5.50;;
75932;SDS011;64803;52.356;5.310;2023-04-01T03:48:44;23.05;;;5.90;;
75932;SDS011;64803;52.356;5.310;2023-04-01T03:51:10;25.48;;;6.30;;
75932;SDS011;64803;52.356;5.310;2023-04-01T03:53:36;29.05;;;6.80;;
75932;SDS011;64803;52.356;5.310;2023-04-01T03:56:05;23.88;;;6.32;;
75932;SDS011;64803;52.356;5.310;2023-04-01T03:58:34;24.73;;;5.80;;
75932;SDS011;64803;52.356;5.310;2023-04-01T04:01:02;22.60;;;5.70;;
75932;SDS011;64803;52.356;5.310;2023-04-01T04:03:29;23.33;;;6.72;;
75932;SDS011;64803;52.356;5.310;2023-04-01T04:05:55;33.70;;;7.85;;
75932;SDS011;64803;52.356;5.310;2023-04-01T04:08:22;27.00;;;7.10;;
75932;SDS011;64803;52.356;5.310;2023-04-01T04:10:54;26.85;;;6.05;;
75932;SDS011;64803;52.356;5.310;2023-04-01T04:13:20;23.88;;;5.63;;
75932;SDS011;64803;52.356;5.310;2023-04-01T04:15:53;14.43;;;4.78;;
75932;SDS011;64803;52.356;5.310;2023-04-01T04:18:19;19.77;;;4.82;;
75932;SDS011;64803;52.356;5.310;2023-04-01T04:20:45;13.52;;;3.83;;
75932;SDS011;64803;52.356;5.310;2023-04-01T04:23:17;9.55;;;3.10;;
75932;SDS011;64803;52.356;5.310;2023-04-01T04:25:53;13.68;;;4.60;;
75932;SDS011;64803;52.356;5.310;2023-04-01T04:28:26;15.98;;;5.32;;
75932;SDS011;64803;52.356;5.310;2023-04-01T04:30:53;13.50;;;4.70;;
75932;SDS011;64803;52.356;5.310;2023-04-01T04:33:21;18.90;;;5.95;;
75932;SDS011;64803;52.356;5.310;2023-04-01T04:35:48;15.50;;;6.07;;
75932;SDS011;64803;52.356;5.310;2023-04-01T04:38:14;15.07;;;6.78;;
75932;SDS011;64803;52.356;5.310;2023-04-01T04:40:41;12.82;;;5.75;;
75932;SDS011;64803;52.356;5.310;2023-04-01T04:43:11;19.67;;;6.78;;
75932;SDS011;64803;52.356;5.310;2023-04-01T04:45:39;11.95;;;4.55;;
75932;SDS011;64803;52.356;5.310;2023-04-01T04:48:10;16.17;;;7.13;;
75932;SDS011;64803;52.356;5.310;2023-04-01T04:50:41;12.20;;;4.30;;
75932;SDS011;64803;52.356;5.310;2023-04-01T04:53:11;15.55;;;4.88;;
75932;SDS011;64803;52.356;5.310;2023-04-01T04:55:42;23.35;;;6.28;;
75932;SDS011;64803;52.356;5.310;2023-04-01T04:58:19;13.05;;;5.05;;
75932;SDS011;64803;52.356;5.310;2023-04-01T05:00:46;20.83;;;5.47;;
75932;SDS011;64803;52.356;5.310;2023-04-01T05:03:19;14.15;;;5.22;;
75932;SDS011;64803;52.356;5.310;2023-04-01T05:05:49;16.33;;;4.75;;
75932;SDS011;64803;52.356;5.310;2023-04-01T05:08:16;13.70;;;4.40;;
75932;SDS011;64803;52.356;5.310;2023-04-01T05:10:43;16.10;;;5.43;;
75932;SDS011;64803;52.356;5.310;2023-04-01T05:13:09;16.15;;;5.47;;
75932;SDS011;64803;52.356;5.310;2023-04-01T05:15:36;12.38;;;4.60;;
75932;SDS011;64803;52.356;5.310;2023-04-01T05:18:03;17.58;;;6.35;;
75932;SDS011;64803;52.356;5.310;2023-04-01T05:20:29;17.02;;;5.60;;
75932;SDS011;64803;52.356;5.310;2023-04-01T05:22:56;10.73;;;3.55;;
75932;SDS011;64803;52.356;5.310;2023-04-01T05:25:22;16.65;;;6.75;;
75932;SDS011;64803;52.356;5.310;2023-04-01T05:27:48;22.10;;;6.50;;
75932;SDS011;64803;52.356;5.310;2023-04-01T05:30:14;16.20;;;5.38;;
75932;SDS011;64803;52.356;5.310;2023-04-01T05:32:59;19.38;;;5.68;;
75932;SDS011;64803;52.356;5.310;2023-04-01T05:35:25;14.98;;;5.22;;
75932;SDS011;64803;52.356;5.310;2023-04-01T05:37:51;13.40;;;4.28;;
75932;SDS011;64803;52.356;5.310;2023-04-01T05:40:17;14.40;;;4.88;;
75932;SDS011;64803;52.356;5.310;2023-04-01T05:42:44;17.20;;;5.00;;
75932;SDS011;64803;52.356;5.310;2023-04-01T05:45:10;16.50;;;4.30;;
75932;SDS011;64803;52.356;5.310;2023-04-01T05:47:58;12.52;;;3.95;;
75932;SDS011;64803;52.356;5.310;2023-04-01T05:50:25;11.50;;;3.17;;
75932;SDS011;64803;52.356;5.310;2023-04-01T05:52:52;13.63;;;4.15;;
75932;SDS011;64803;52.356;5.310;2023-04-01T05:55:18;9.82;;;3.38;;
75932;SDS011;64803;52.356;5.310;2023-04-01T05:57:45;9.93;;;3.47;;
75932;SDS011;64803;52.356;5.310;2023-04-01T06:00:12;7.57;;;2.15;;
75932;SDS011;64803;52.356;5.310;2023-04-01T06:02:39;9.23;;;3.05;;
75932;SDS011;64803;52.356;5.310;2023-04-01T06:07:39;8.15;;;2.42;;
75932;SDS011;64803;52.356;5.310;2023-04-01T06:10:09;6.70;;;2.38;;
75932;SDS011;64803;52.356;5.310;2023-04-01T06:12:45;4.00;;;1.50;;
75932;SDS011;64803;52.356;5.310;2023-04-01T06:15:20;6.50;;;2.05;;
75932;SDS011;64803;52.356;5.310;2023-04-01T06:34:05;9.90;;;3.15;;
75932;SDS011;64803;52.356;5.310;2023-04-01T06:54:09;11.18;;;4.25;;
75932;SDS011;64803;52.356;5.310;2023-04-01T06:56:59;16.73;;;5.10;;
75932;SDS011;64803;52.356;5.310;2023-04-01T06:59:32;18.05;;;6.75;;
75932;SDS011;64803;52.356;5.310;2023-04-01T07:02:05;15.02;;;5.53;;
75932;SDS011;64803;52.356;5.310;2023-04-01T07:04:56;19.50;;;5.80;;
75932;SDS011;64803;52.356;5.310;2023-04-01T07:10:10;23.23;;;7.15;;
75932;SDS011;64803;52.356;5.310;2023-04-01T07:13:09;17.52;;;5.95;;
75932;SDS011;64803;52.356;5.310;2023-04-01T07:16:03;13.90;;;5.90;;
75932;SDS011;64803;52.356;5.310;2023-04-01T07:21:28;18.75;;;6.53;;
75932;SDS011;64803;52.356;5.310;2023-04-01T07:24:04;21.30;;;7.25;;
75932;SDS011;64803;52.356;5.310;2023-04-01T07:26:49;19.00;;;6.18;;
75932;SDS011;64803;52.356;5.310;2023-04-01T07:29:22;15.38;;;6.18;;
75932;SDS011;64803;52.356;5.310;2023-04-01T07:40:23;15.05;;;6.28;;
75932;SDS011;64803;52.356;5.310;2023-04-01T07:43:20;17.33;;;5.95;;
75932;SDS011;64803;52.356;5.310;2023-04-01T07:49:01;15.77;;;6.57;;
75932;SDS011;64803;52.356;5.310;2023-04-01T07:51:39;11.43;;;5.35;;
75932;SDS011;64803;52.356;5.310;2023-04-01T07:57:42;19.55;;;8.02;;
75932;SDS011;64803;52.356;5.310;2023-04-01T07:59:58;20.02;;;7.50;;
75932;SDS011;64803;52.356;5.310;2023-04-01T08:02:56;19.77;;;7.43;;
75932;SDS011;64803;52.356;5.310;2023-04-01T08:06:02;20.90;;;7.60;;
75932;SDS011;64803;52.356;5.310;2023-04-01T08:08:45;24.75;;;7.93;;
75932;SDS011;64803;52.356;5.310;2023-04-01T08:21:37;18.92;;;6.43;;
75932;SDS011;64803;52.356;5.310;2023-04-01T08:24:16;19.48;;;6.57;;
75932;SDS011;64803;52.356;5.310;2023-04-01T08:26:54;21.33;;;6.30;;
75932;SDS011;64803;52.356;5.310;2023-04-01T08:32:18;21.55;;;8.57;;
75932;SDS011;64803;52.356;5.310;2023-04-01T08:35:12;18.90;;;7.30;;
75932;SDS011;64803;52.356;5.310;2023-04-01T08:37:46;18.98;;;8.27;;
75932;SDS011;64803;52.356;5.310;2023-04-01T08:49:22;16.42;;;6.47;;
75932;SDS011;64803;52.356;5.310;2023-04-01T08:55:25;18.65;;;6.43;;
75932;SDS011;64803;52.356;5.310;2023-04-01T08:58:11;18.50;;;6.57;;
75932;SDS011;64803;52.356;5.310;2023-04-01T09:06:49;22.50;;;7.07;;
75932;SDS011;64803;52.356;5.310;2023-04-01T09:23:42;26.70;;;6.50;;
75932;SDS011;64803;52.356;5.310;2023-04-01T09:43:58;21.30;;;6.82;;
75932;SDS011;64803;52.356;5.310;2023-04-01T10:00:55;21.48;;;6.95;;
75932;SDS011;64803;52.356;5.310;2023-04-01T10:09:40;14.27;;;4.68;;
75932;SDS011;64803;52.356;5.310;2023-04-01T10:30:06;11.50;;;3.75;;
75932;SDS011;64803;52.356;5.310;2023-04-01T10:48:04;7.38;;;2.78;;
75932;SDS011;64803;52.356;5.310;2023-04-01T10:50:54;11.18;;;4.10;;
75932;SDS011;64803;52.356;5.310;2023-04-01T10:56:55;10.10;;;3.67;;
75932;SDS011;64803;52.356;5.310;2023-04-01T10:59:52;9.02;;;4.15;;
75932;SDS011;64803;52.356;5.310;2023-04-01T11:02:57;12.18;;;4.47;;
75932;SDS011;64803;52.356;5.310;2023-04-01T11:17:10;12.93;;;5.20;;
75932;SDS011;64803;52.356;5.310;2023-04-01T11:22:39;17.25;;;6.90;;
75932;SDS011;64803;52.356;5.310;2023-04-01T11:25:21;11.27;;;5.20;;
75932;SDS011;64803;52.356;5.310;2023-04-01T11:34:01;22.30;;;7.40;;
75932;SDS011;64803;52.356;5.310;2023-04-01T11:42:26;19.85;;;7.10;;
75932;SDS011;64803;52.356;5.310;2023-04-01T11:45:35;24.33;;;7.95;;
75932;SDS011;64803;52.356;5.310;2023-04-01T12:12:59;14.10;;;6.07;;
75932;SDS011;64803;52.356;5.310;2023-04-01T12:15:45;17.73;;;5.90;;
75932;SDS011;64803;52.356;5.310;2023-04-01T12:27:11;13.27;;;6.10;;
75932;SDS011;64803;52.356;5.310;2023-04-01T12:46:44;15.52;;;5.80;;
75932;SDS011;64803;52.356;5.310;2023-04-01T12:52:40;14.98;;;7.38;;
75932;SDS011;64803;52.356;5.310;2023-04-01T13:14:57;15.27;;;6.03;;
75932;SDS011;64803;52.356;5.310;2023-04-01T13:20:16;18.85;;;7.28;;
75932;SDS011;64803;52.356;5.310;2023-04-01T13:31:24;10.13;;;4.15;;
75932;SDS011;64803;52.356;5.310;2023-04-01T13:42:25;10.50;;;4.35;;
75932;SDS011;64803;52.356;5.310;2023-04-01T13:59:07;11.45;;;4.78;;
75932;SDS011;64803;52.356;5.310;2023-04-01T14:07:57;9.35;;;3.78;;
75932;SDS011;64803;52.356;5.310;2023-04-01T14:22:30;12.48;;;5.65;;
75932;SDS011;64803;52.356;5.310;2023-04-01T14:33:51;12.45;;;4.93;;
75932;SDS011;64803;52.356;5.310;2023-04-01T14:48:17;15.20;;;5.35;;
75932;SDS011;64803;52.356;5.310;2023-04-01T14:50:51;10.27;;;3.85;;
75932;SDS011;64803;52.356;5.310;2023-04-01T14:55:53;12.82;;;4.55;;
75932;SDS011;64803;52.356;5.310;2023-04-01T14:58:21;13.85;;;6.95;;
75932;SDS011;64803;52.356;5.310;2023-04-01T15:03:50;10.77;;;5.60;;
75932;SDS011;64803;52.356;5.310;2023-04-01T15:09:35;16.77;;;7.43;;
75932;SDS011;64803;52.356;5.310;2023-04-01T15:20:22;12.45;;;5.00;;
75932;SDS011;64803;52.356;5.310;2023-04-01T15:29:44;11.80;;;4.10;;
75932;SDS011;64803;52.356;5.310;2023-04-01T15:32:37;10.55;;;4.05;;
75932;SDS011;64803;52.356;5.310;2023-04-01T15:37:56;11.80;;;5.13;;
75932;SDS011;64803;52.356;5.310;2023-04-01T15:40:38;10.55;;;4.15;;
75932;SDS011;64803;52.356;5.310;2023-04-01T15:45:58;11.05;;;3.83;;
75932;SDS011;64803;52.356;5.310;2023-04-01T15:48:48;11.55;;;4.57;;
75932;SDS011;64803;52.356;5.310;2023-04-01T15:54:22;7.20;;;2.78;;
75932;SDS011;64803;52.356;5.310;2023-04-01T15:57:32;8.23;;;2.92;;
75932;SDS011;64803;52.356;5.310;2023-04-01T16:08:02;6.53;;;2.88;;
75932;SDS011;64803;52.356;5.310;2023-04-01T16:16:12;7.45;;;2.78;;
75932;SDS011;64803;52.356;5.310;2023-04-01T16:23:50;8.98;;;3.58;;
75932;SDS011;64803;52.356;5.310;2023-04-01T16:29:22;7.22;;;2.65;;
75932;SDS011;64803;52.356;5.310;2023-04-01T16:31:55;5.90;;;2.40;;
75932;SDS011;64803;52.356;5.310;2023-04-01T16:38:01;5.45;;;2.00;;
75932;SDS011;64803;52.356;5.310;2023-04-01T16:40:42;6.05;;;1.70;;
75932;SDS011;64803;52.356;5.310;2023-04-01T16:43:19;4.72;;;1.27;;
75932;SDS011;64803;52.356;5.310;2023-04-01T16:46:05;3.40;;;1.20;;
75932;SDS011;64803;52.356;5.310;2023-04-01T16:54:47;3.95;;;1.40;;
75932;SDS011;64803;52.356;5.310;2023-04-01T16:57:27;4.97;;;1.75;;
75932;SDS011;64803;52.356;5.310;2023-04-01T17:03:01;4.07;;;1.38;;
75932;SDS011;64803;52.356;5.310;2023-04-01T17:05:40;4.03;;;1.42;;
75932;SDS011;64803;52.356;5.310;2023-04-01T17:08:17;3.92;;;1.60;;
75932;SDS011;64803;52.356;5.310;2023-04-01T17:10:57;4.50;;;1.88;;
75932;SDS011;64803;52.356;5.310;2023-04-01T17:13:39;6.25;;;2.42;;
75932;SDS011;64803;52.356;5.310;2023-04-01T17:19:08;4.68;;;1.85;;
75932;SDS011;64803;52.356;5.310;2023-04-01T17:24:32;4.97;;;1.90;;
75932;SDS011;64803;52.356;5.310;2023-04-01T17:40:50;5.88;;;3.15;;
75932;SDS011;64803;52.356;5.310;2023-04-01T17:49:15;3.53;;;1.35;;
75932;SDS011;64803;52.356;5.310;2023-04-01T18:11:18;7.45;;;3.28;;
75932;SDS011;64803;52.356;5.310;2023-04-01T18:16:30;6.97;;;3.47;;
75932;SDS011;64803;52.356;5.310;2023-04-01T18:19:16;6.50;;;3.17;;
75932;SDS011;64803;52.356;5.310;2023-04-01T18:21:56;8.68;;;3.63;;
75932;SDS011;64803;52.356;5.310;2023-04-01T18:24:45;7.95;;;4.32;;
75932;SDS011;64803;52.356;5.310;2023-04-01T18:27:15;8.27;;;3.58;;
75932;SDS011;64803;52.356;5.310;2023-04-01T18:29:49;11.15;;;4.78;;
75932;SDS011;64803;52.356;5.310;2023-04-01T18:32:27;8.05;;;3.58;;
75932;SDS011;64803;52.356;5.310;2023-04-01T18:40:40;7.57;;;3.40;;
75932;SDS011;64803;52.356;5.310;2023-04-01T18:43:15;8.63;;;4.07;;
75932;SDS011;64803;52.356;5.310;2023-04-01T18:46:00;9.80;;;4.60;;
75932;SDS011;64803;52.356;5.310;2023-04-01T18:51:25;8.52;;;3.97;;
75932;SDS011;64803;52.356;5.310;2023-04-01T18:57:08;8.27;;;3.92;;
75932;SDS011;64803;52.356;5.310;2023-04-01T19:05:14;11.82;;;5.05;;
75932;SDS011;64803;52.356;5.310;2023-04-01T19:07:52;7.97;;;3.95;;
75932;SDS011;64803;52.356;5.310;2023-04-01T19:13:19;13.60;;;4.22;;
75932;SDS011;64803;52.356;5.310;2023-04-01T19:21:37;9.18;;;3.95;;
75932;SDS011;64803;52.356;5.310;2023-04-01T19:24:17;8.55;;;4.25;;
75932;SDS011;64803;52.356;5.310;2023-04-01T19:37:45;9.30;;;3.88;;
75932;SDS011;64803;52.356;5.310;2023-04-01T19:51:25;8.85;;;4.10;;
75932;SDS011;64803;52.356;5.310;2023-04-01T19:56:43;7.68;;;3.72;;
75932;SDS011;64803;52.356;5.310;2023-04-01T19:59:27;8.25;;;4.00;;
75932;SDS011;64803;52.356;5.310;2023-04-01T20:04:42;9.98;;;4.15;;
75932;SDS011;64803;52.356;5.310;2023-04-01T20:07:31;8.02;;;3.70;;
75932;SDS011;64803;52.356;5.310;2023-04-01T20:10:08;6.65;;;2.88;;
75932;SDS011;64803;52.356;5.310;2023-04-01T20:12:46;11.95;;;4.88;;
75932;SDS011;64803;52.356;5.310;2023-04-01T20:15:30;16.50;;;5.32;;
75932;SDS011;64803;52.356;5.310;2023-04-01T20:18:19;8.50;;;3.53;;
75932;SDS011;64803;52.356;5.310;2023-04-01T20:21:00;9.52;;;4.63;;
75932;SDS011;64803;52.356;5.310;2023-04-01T20:23:38;10.93;;;4.45;;
75932;SDS011;64803;52.356;5.310;2023-04-01T20:26:11;8.32;;;3.58;;
75932;SDS011;64803;52.356;5.310;2023-04-01T20:28:43;13.13;;;4.53;;
75932;SDS011;64803;52.356;5.310;2023-04-01T20:31:23;10.88;;;4.18;;
75932;SDS011;64803;52.356;5.310;2023-04-01T20:58:18;9.05;;;4.53;;
75932;SDS011;64803;52.356;5.310;2023-04-01T21:01:20;9.55;;;4.68;;
75932;SDS011;64803;52.356;5.310;2023-04-01T21:13:24;10.50;;;4.45;;
75932;SDS011;64803;52.356;5.310;2023-04-01T21:16:08;9.80;;;4.35;;
75932;SDS011;64803;52.356;5.310;2023-04-01T21:32:52;9.48;;;4.47;;
75932;SDS011;64803;52.356;5.310;2023-04-01T21:35:39;12.35;;;4.80;;
75932;SDS011;64803;52.356;5.310;2023-04-01T21:42:12;13.10;;;5.43;;
75932;SDS011;64803;52.356;5.310;2023-04-01T21:45:00;13.80;;;5.47;;
75932;SDS011;64803;52.356;5.310;2023-04-01T21:48:19;8.82;;;4.43;;
75932;SDS011;64803;52.356;5.310;2023-04-01T21:59:11;11.90;;;3.75;;
75932;SDS011;64803;52.356;5.310;2023-04-01T22:04:52;13.73;;;6.78;;
75932;SDS011;64803;52.356;5.310;2023-04-01T22:07:43;8.93;;;4.90;;
75932;SDS011;64803;52.356;5.310;2023-04-01T22:13:16;10.82;;;5.60;;
75932;SDS011;64803;52.356;5.310;2023-04-01T22:16:09;11.95;;;5.35;;
75932;SDS011;64803;52.356;5.310;2023-04-01T22:21:43;11.02;;;4.10;;
75932;SDS011;64803;52.356;5.310;2023-04-01T22:24:41;11.20;;;5.05;;
75932;SDS011;64803;52.356;5.310;2023-04-01T22:27:21;11.48;;;4.60;;
75932;SDS011;64803;52.356;5.310;2023-04-01T22:32:32;11.60;;;5.90;;
75932;SDS011;64803;52.356;5.310;2023-04-01T22:43:44;13.65;;;6.47;;
75932;SDS011;64803;52.356;5.310;2023-04-01T22:54:12;14.88;;;6.38;;
75932;SDS011;64803;52.356;5.310;2023-04-01T22:56:51;13.63;;;6.20;;
75932;SDS011;64803;52.356;5.310;2023-04-01T23:02:09;8.70;;;4.28;;
75932;SDS011;64803;52.356;5.310;2023-04-01T23:04:42;13.07;;;5.90;;
75932;SDS011;64803;52.356;5.310;2023-04-01T23:07:26;13.95;;;5.53;;
75932;SDS011;64803;52.356;5.310;2023-04-01T23:13:10;13.93;;;6.82;;
75932;SDS011;64803;52.356;5.310;2023-04-01T23:15:42;16.90;;;6.97;;
75932;SDS011;64803;52.356;5.310;2023-04-01T23:18:23;10.88;;;4.88;;
75932;SDS011;64803;52.356;5.310;2023-04-01T23:21:12;14.98;;;6.30;;
75932;SDS011;64803;52.356;5.310;2023-04-01T23:29:16;15.13;;;6.00;;
75932;SDS011;64803;52.356;5.310;2023-04-01T23:31:45;20.40;;;7.13;;
75932;SDS011;64803;52.356;5.310;2023-04-01T23:36:45;14.90;;;6.93;;
75932;SDS011;64803;52.356;5.310;2023-04-01T23:39:23;11.73;;;6.32;;
75932;SDS011;64803;52.356;5.310;2023-04-01T23:42:41;17.55;;;5.72;;
75932;SDS011;64803;52.356;5.310;2023-04-01T23:44:50;12.88;;;7.32;;
75932;SDS011;64803;52.356;5.310;2023-04-01T23:47:23;27.45;;;4.00;;
75932;SDS011;64803;52.356;5.310;2023-04-01T23:50:38;12.48;;;5.78;;
75932;SDS011;64803;52.356;5.310;2023-04-01T23:52:57;17.25;;;5.03;;
75932;SDS011;64803;52.356;5.310;2023-04-01T23:55:28;15.88;;;6.47;;
75932;SDS011;64803;52.356;5.310;2023-04-01T23:58:05;10.48;;;4.47;;
